createdAt,value
2019-04-30T00:01:21.806Z,12.34
2019-04-30T00:04:05.784Z,12.15
2019-04-30T00:06:39.327Z,12.13
2019-04-30T00:09:09.736Z,12.20
2019-04-30T00:11:38.329Z,12.18
2019-04-30T00:14:07.773Z,12.00
2019-04-30T00:16:39.859Z,12.28
2019-04-30T00:19:10.669Z,12.26
2019-04-30T00:21:39.527Z,12.30
2019-04-30T00:24:10.266Z,12.36
2019-04-30T00:26:44.235Z,12.39
2019-04-30T00:29:11.176Z,12.45
2019-04-30T00:31:40.621Z,12.25
2019-04-30T00:34:10.062Z,12.44
2019-04-30T00:36:39.499Z,12.37
2019-04-30T00:39:13.284Z,12.36
2019-04-30T00:41:45.930Z,12.30
2019-04-30T00:44:11.801Z,12.42
2019-04-30T00:46:41.251Z,12.20
2019-04-30T00:49:16.053Z,12.28
2019-04-30T00:51:42.219Z,12.15
2019-04-30T00:54:11.654Z,12.21
2019-04-30T00:56:41.086Z,12.24
2019-04-30T00:59:10.736Z,12.30
2019-04-30T01:01:56.338Z,12.32
2019-04-30T01:04:44.879Z,12.28
2019-04-30T01:07:16.304Z,12.34
2019-04-30T01:09:49.451Z,12.28
2019-04-30T01:12:24.582Z,12.40
2019-04-30T01:14:49.662Z,12.53
2019-04-30T01:17:19.184Z,12.65
2019-04-30T01:19:51.140Z,12.62
2019-04-30T01:22:27.765Z,12.67
2019-04-30T01:24:51.163Z,12.68
2019-04-30T01:27:20.832Z,12.67
2019-04-30T01:29:50.456Z,12.75
2019-04-30T01:32:21.110Z,12.72
2019-04-30T01:34:53.780Z,12.66
2019-04-30T01:37:28.672Z,12.75
2019-04-30T01:39:53.031Z,12.68
2019-04-30T01:42:22.534Z,12.56
2019-04-30T01:44:53.903Z,12.67
2019-04-30T01:47:27.587Z,12.72
2019-04-30T01:49:55.790Z,12.46
2019-04-30T01:52:29.222Z,12.60
2019-04-30T01:54:58.654Z,12.21
2019-04-30T01:57:32.465Z,12.52
2019-04-30T02:00:01.676Z,12.55
2019-04-30T02:02:32.932Z,12.43
2019-04-30T02:05:02.400Z,12.40
2019-04-30T02:07:31.844Z,12.62
2019-04-30T02:10:01.337Z,12.77
2019-04-30T02:12:30.822Z,13.02
2019-04-30T02:15:00.274Z,13.01
2019-04-30T02:17:29.799Z,12.98
2019-04-30T02:19:59.475Z,13.19
2019-04-30T02:22:31.225Z,13.25
2019-04-30T02:25:00.209Z,12.89
2019-04-30T02:27:29.668Z,13.09
2019-04-30T02:30:02.532Z,12.77
2019-04-30T02:32:30.764Z,12.98
2019-04-30T02:35:09.563Z,12.97
2019-04-30T02:37:43.402Z,12.80
2019-04-30T02:40:11.755Z,12.85
2019-04-30T02:42:41.304Z,12.62
2019-04-30T02:45:11.633Z,12.36
2019-04-30T02:47:41.207Z,12.11
2019-04-30T02:50:18.091Z,12.04
2019-04-30T02:52:43.356Z,11.92
2019-04-30T02:55:19.443Z,11.71
2019-04-30T02:57:49.938Z,11.68
2019-04-30T03:00:20.800Z,11.76
2019-04-30T03:02:50.871Z,11.77
2019-04-30T03:05:20.508Z,11.71
2019-04-30T03:07:53.337Z,11.64
2019-04-30T03:10:21.158Z,11.56
2019-04-30T03:12:50.604Z,11.81
2019-04-30T03:15:22.937Z,11.91
2019-04-30T03:17:52.826Z,12.05
2019-04-30T03:20:34.751Z,11.94
2019-04-30T03:22:55.068Z,11.92
2019-04-30T03:25:24.511Z,11.99
2019-04-30T03:27:53.974Z,12.03
2019-04-30T03:30:23.397Z,12.05
2019-04-30T03:32:56.814Z,12.03
2019-04-30T03:35:24.017Z,12.00
2019-04-30T03:37:53.445Z,11.70
2019-04-30T03:40:22.897Z,11.69
2019-04-30T03:42:52.336Z,11.45
2019-04-30T03:45:21.778Z,11.50
2019-04-30T03:47:51.213Z,11.15
2019-04-30T03:50:20.874Z,11.19
2019-04-30T03:52:50.498Z,11.28
2019-04-30T03:55:20.586Z,11.06
2019-04-30T03:57:51.886Z,11.08
2019-04-30T04:00:42.485Z,11.02
2019-04-30T04:03:12.056Z,11.11
2019-04-30T04:05:43.126Z,11.08
2019-04-30T04:08:14.211Z,10.93
2019-04-30T04:10:52.976Z,10.99
2019-04-30T04:13:22.026Z,11.02
2019-04-30T04:15:51.457Z,10.84
2019-04-30T04:18:20.954Z,10.87
2019-04-30T04:21:06.508Z,10.86
2019-04-30T04:23:21.579Z,10.69
2019-04-30T04:25:51.004Z,10.66
2019-04-30T04:28:20.475Z,10.62
2019-04-30T04:30:50.561Z,10.71
2019-04-30T04:33:20.329Z,10.60
2019-04-30T04:35:51.377Z,10.61
2019-04-30T04:38:20.828Z,10.82
2019-04-30T04:40:50.493Z,10.70
2019-04-30T04:43:20.377Z,10.61
2019-04-30T04:45:50.222Z,10.68
2019-04-30T04:48:23.041Z,10.74
2019-04-30T04:50:50.895Z,10.87
2019-04-30T04:53:20.497Z,11.00
2019-04-30T04:55:50.182Z,10.88
2019-04-30T04:58:21.529Z,11.20
2019-04-30T05:00:50.810Z,11.17
2019-04-30T05:03:21.874Z,11.27
2019-04-30T05:05:51.311Z,11.33
2019-04-30T05:08:20.758Z,11.33
2019-04-30T05:10:50.198Z,11.26
2019-04-30T05:13:19.644Z,11.43
2019-04-30T05:15:51.550Z,11.53
2019-04-30T05:18:22.667Z,11.56
2019-04-30T05:20:51.446Z,11.43
2019-04-30T05:23:21.809Z,11.50
2019-04-30T05:25:51.487Z,11.57
2019-04-30T05:28:20.918Z,11.61
2019-04-30T05:30:50.364Z,11.61
2019-04-30T05:33:20.104Z,11.64
2019-04-30T05:35:49.688Z,11.72
2019-04-30T05:38:19.088Z,11.49
2019-04-30T05:40:49.596Z,11.80
2019-04-30T05:43:19.325Z,11.64
2019-04-30T05:45:49.338Z,11.84
2019-04-30T05:48:18.781Z,11.78
2019-04-30T05:50:51.454Z,11.84
2019-04-30T05:53:19.432Z,11.92
2019-04-30T05:55:49.350Z,11.98
2019-04-30T05:58:19.690Z,12.24
2019-04-30T06:00:49.959Z,12.29
2019-04-30T06:03:29.805Z,12.36
2019-04-30T06:05:50.798Z,12.26
2019-04-30T06:08:22.165Z,12.26
2019-04-30T06:10:56.047Z,12.52
2019-04-30T06:13:32.915Z,12.29
2019-04-30T06:16:08.771Z,12.64
2019-04-30T06:18:38.597Z,12.48
2019-04-30T06:21:09.166Z,12.55
2019-04-30T06:23:39.306Z,12.86
2019-04-30T06:26:12.234Z,12.93
2019-04-30T06:28:41.646Z,13.08
2019-04-30T06:31:11.212Z,13.28
2019-04-30T06:33:40.793Z,13.29
2019-04-30T06:36:11.180Z,13.27
2019-04-30T06:38:40.663Z,13.40
2019-04-30T06:41:10.099Z,13.74
2019-04-30T06:43:39.604Z,13.77
2019-04-30T06:46:09.057Z,13.12
2019-04-30T06:48:41.814Z,13.52
2019-04-30T06:51:10.504Z,13.68
2019-04-30T06:53:39.947Z,13.79
2019-04-30T06:56:09.394Z,13.91
2019-04-30T06:58:41.376Z,13.92
2019-04-30T07:01:10.030Z,14.06
2019-04-30T07:03:39.480Z,14.09
2019-04-30T07:06:08.916Z,14.08
2019-04-30T07:08:46.795Z,14.22
2019-04-30T07:11:24.336Z,14.17
2019-04-30T07:13:53.864Z,14.26
2019-04-30T07:16:23.327Z,14.23
2019-04-30T07:18:52.832Z,14.22
2019-04-30T07:21:22.350Z,14.24
2019-04-30T07:23:52.140Z,14.28
2019-04-30T07:26:24.486Z,14.19
2019-04-30T07:28:55.283Z,14.17
2019-04-30T07:31:23.979Z,14.26
2019-04-30T07:33:54.053Z,14.64
2019-04-30T07:36:23.571Z,14.72
2019-04-30T07:38:56.337Z,14.88
2019-04-30T07:41:24.418Z,15.21
2019-04-30T07:43:53.864Z,15.23
2019-04-30T07:46:23.303Z,15.30
2019-04-30T07:48:52.748Z,15.26
2019-04-30T07:51:22.922Z,15.59
2019-04-30T07:53:52.725Z,15.33
2019-04-30T07:56:27.944Z,15.41
2019-04-30T07:58:53.390Z,15.55
2019-04-30T08:01:22.845Z,15.50
2019-04-30T08:04:05.652Z,15.46
2019-04-30T08:06:35.150Z,15.17
2019-04-30T08:09:10.290Z,15.00
2019-04-30T08:11:43.315Z,15.39
2019-04-30T08:14:10.171Z,15.68
2019-04-30T08:16:39.610Z,15.74
2019-04-30T08:19:09.179Z,15.43
2019-04-30T08:21:38.851Z,15.72
2019-04-30T08:24:09.242Z,15.76
2019-04-30T08:26:39.743Z,15.63
2019-04-30T08:29:09.701Z,15.69
2019-04-30T08:31:40.877Z,15.69
2019-04-30T08:34:10.929Z,15.98
2019-04-30T08:36:40.520Z,16.21
2019-04-30T08:39:09.957Z,16.26
2019-04-30T08:41:39.413Z,16.16
2019-04-30T08:44:09.497Z,16.26
2019-04-30T08:46:38.915Z,16.05
2019-04-30T08:49:09.985Z,16.07
2019-04-30T08:51:40.386Z,16.36
2019-04-30T08:54:10.075Z,16.36
2019-04-30T08:56:39.655Z,16.52
2019-04-30T08:59:11.250Z,16.52
2019-04-30T09:01:40.396Z,16.64
2019-04-30T09:04:10.468Z,17.01
2019-04-30T09:06:40.163Z,17.09
2019-04-30T09:09:11.477Z,17.09
2019-04-30T09:11:51.856Z,17.60
2019-04-30T09:14:12.078Z,17.74
2019-04-30T09:16:41.531Z,17.75
2019-04-30T09:19:11.053Z,17.80
2019-04-30T09:21:40.476Z,17.80
2019-04-30T09:24:09.915Z,17.79
2019-04-30T09:26:39.363Z,17.39
2019-04-30T09:29:09.394Z,17.07
2019-04-30T09:31:40.843Z,17.26
2019-04-30T09:34:17.458Z,17.44
2019-04-30T09:36:41.158Z,17.53
2019-04-30T09:39:10.735Z,17.60
2019-04-30T09:41:41.192Z,18.13
2019-04-30T09:44:10.750Z,18.41
2019-04-30T09:46:40.181Z,18.66
2019-04-30T09:49:09.768Z,18.23
2019-04-30T09:51:39.983Z,18.01
2019-04-30T09:54:12.378Z,18.10
2019-04-30T09:56:40.962Z,18.28
2019-04-30T09:59:10.480Z,18.67
2019-04-30T10:01:39.913Z,18.61
2019-04-30T10:04:10.470Z,18.41
2019-04-30T10:06:40.462Z,17.99
2019-04-30T10:09:11.687Z,17.90
2019-04-30T10:11:45.552Z,17.82
2019-04-30T10:14:14.994Z,18.03
2019-04-30T10:16:44.221Z,17.73
2019-04-30T10:19:15.044Z,18.19
2019-04-30T10:21:44.494Z,18.88
2019-04-30T10:24:15.724Z,18.93
2019-04-30T10:26:45.104Z,18.98
2019-04-30T10:29:15.964Z,18.52
2019-04-30T10:31:45.728Z,18.37
2019-04-30T10:34:15.165Z,18.56
2019-04-30T10:36:44.620Z,18.74
2019-04-30T10:39:14.130Z,19.17
2019-04-30T10:41:43.575Z,19.58
2019-04-30T10:44:13.014Z,19.57
2019-04-30T10:46:42.546Z,18.88
2019-04-30T10:49:11.988Z,19.25
2019-04-30T10:51:41.422Z,19.04
2019-04-30T10:54:23.005Z,19.21
2019-04-30T10:56:42.029Z,19.78
2019-04-30T10:59:11.488Z,20.29
2019-04-30T11:01:40.928Z,20.18
2019-04-30T11:04:11.139Z,20.06
2019-04-30T11:06:40.596Z,19.85
2019-04-30T11:09:10.237Z,19.43
2019-04-30T11:11:39.826Z,19.95
2019-04-30T11:14:09.363Z,20.02
2019-04-30T11:16:38.963Z,19.58
2019-04-30T11:19:09.439Z,19.36
2019-04-30T11:21:39.211Z,19.88
2019-04-30T11:24:09.322Z,19.58
2019-04-30T11:26:40.288Z,19.89
2019-04-30T11:29:10.422Z,19.59
2019-04-30T11:31:57.030Z,19.46
2019-04-30T11:34:28.216Z,19.95
2019-04-30T11:36:57.810Z,19.71
2019-04-30T11:39:29.654Z,19.89
2019-04-30T11:41:58.714Z,19.20
2019-04-30T11:44:31.259Z,19.49
2019-04-30T11:47:15.796Z,19.95
2019-04-30T11:49:45.241Z,19.58
2019-04-30T11:52:14.743Z,19.79
2019-04-30T11:54:51.308Z,19.63
2019-04-30T11:57:15.421Z,19.84
2019-04-30T11:59:44.890Z,20.24
2019-04-30T12:02:22.931Z,19.97
2019-04-30T12:04:52.385Z,19.93
2019-04-30T12:07:33.524Z,20.23
2019-04-30T12:10:04.595Z,20.48
2019-04-30T12:12:34.029Z,20.88
2019-04-30T12:15:04.427Z,20.76
2019-04-30T12:17:33.857Z,21.05
2019-04-30T12:20:04.463Z,20.90
2019-04-30T12:22:33.917Z,21.55
2019-04-30T12:25:05.479Z,21.51
2019-04-30T12:27:35.035Z,22.22
2019-04-30T12:30:09.075Z,21.74
2019-04-30T12:32:39.290Z,21.17
2019-04-30T12:35:09.323Z,21.91
2019-04-30T12:37:39.146Z,22.52
2019-04-30T12:40:13.967Z,22.57
2019-04-30T12:42:40.474Z,23.17
2019-04-30T12:45:10.244Z,23.26
2019-04-30T12:47:41.369Z,23.83
2019-04-30T12:50:11.367Z,24.07
2019-04-30T12:52:51.365Z,23.90
2019-04-30T12:55:39.199Z,24.09
2019-04-30T12:58:09.790Z,23.49
2019-04-30T13:00:39.310Z,22.42
2019-04-30T13:03:08.764Z,21.66
2019-04-30T13:05:39.607Z,21.87
2019-04-30T13:08:10.027Z,23.12
2019-04-30T13:10:40.151Z,23.73
2019-04-30T13:13:10.395Z,24.04
2019-04-30T13:15:40.292Z,24.16
2019-04-30T13:18:09.723Z,24.06
2019-04-30T13:20:39.383Z,23.97
2019-04-30T13:23:08.895Z,24.07
2019-04-30T13:25:48.994Z,23.72
2019-04-30T13:28:14.041Z,23.35
2019-04-30T13:30:43.474Z,24.02
2019-04-30T13:33:15.771Z,25.28
2019-04-30T13:35:45.244Z,26.58
2019-04-30T13:38:22.043Z,27.39
2019-04-30T13:40:53.131Z,27.06
2019-04-30T13:43:40.269Z,27.68
2019-04-30T13:46:09.761Z,26.36
2019-04-30T13:48:39.201Z,27.23
2019-04-30T13:51:08.632Z,27.99
2019-04-30T13:53:39.508Z,29.79
2019-04-30T13:56:09.009Z,29.18
2019-04-30T13:58:38.445Z,28.10
2019-04-30T14:01:07.970Z,28.80
2019-04-30T14:03:42.042Z,29.22
2019-04-30T14:06:13.127Z,29.71
2019-04-30T14:08:48.721Z,31.25
2019-04-30T14:11:18.998Z,30.31
2019-04-30T14:13:48.526Z,28.71
2019-04-30T14:16:18.002Z,29.10
2019-04-30T14:18:48.769Z,30.62
2019-04-30T14:21:19.350Z,29.73
2019-04-30T14:23:49.538Z,30.56
2019-04-30T14:26:19.418Z,30.26
2019-04-30T14:28:49.003Z,30.17
2019-04-30T14:31:18.716Z,30.89
2019-04-30T14:33:49.552Z,31.46
2019-04-30T14:36:19.446Z,31.04
2019-04-30T14:38:48.990Z,32.39
2019-04-30T14:41:19.082Z,32.41
2019-04-30T14:43:51.201Z,31.96
2019-04-30T14:46:21.096Z,31.70
2019-04-30T14:48:55.831Z,29.18
2019-04-30T14:51:25.677Z,28.93
2019-04-30T14:53:54.893Z,30.83
2019-04-30T14:56:26.042Z,28.93
2019-04-30T14:59:13.349Z,29.18
2019-04-30T15:01:49.047Z,30.33
2019-04-30T15:04:20.339Z,31.03
2019-04-30T15:06:49.484Z,30.93
2019-04-30T15:09:19.021Z,30.42
2019-04-30T15:11:48.733Z,30.82
2019-04-30T15:14:18.149Z,30.50
2019-04-30T15:16:47.689Z,28.67
2019-04-30T15:19:17.119Z,28.66
2019-04-30T15:21:46.666Z,29.13
2019-04-30T15:24:16.436Z,28.79
2019-04-30T15:26:45.890Z,30.12
2019-04-30T15:29:16.200Z,29.75
2019-04-30T15:31:45.814Z,30.19
2019-04-30T15:34:15.338Z,29.05
2019-04-30T15:36:44.773Z,29.86
2019-04-30T15:39:14.071Z,27.01
2019-04-30T15:41:43.511Z,26.29
2019-04-30T15:44:12.958Z,28.32
2019-04-30T15:46:42.559Z,29.28
2019-04-30T15:49:12.106Z,30.31
2019-04-30T15:51:41.511Z,31.64
2019-04-30T15:54:11.036Z,31.59
2019-04-30T15:56:42.335Z,30.55
2019-04-30T15:59:16.223Z,29.06
2019-04-30T16:01:52.824Z,29.54
2019-04-30T16:04:30.526Z,30.25
2019-04-30T16:06:59.996Z,30.15
2019-04-30T16:09:34.083Z,29.50
2019-04-30T16:12:05.159Z,29.39
2019-04-30T16:14:36.248Z,28.47
2019-04-30T16:17:16.162Z,27.66
2019-04-30T16:19:45.596Z,28.75
2019-04-30T16:22:15.185Z,28.61
2019-04-30T16:24:44.620Z,29.10
2019-04-30T16:27:14.052Z,29.16
2019-04-30T16:29:43.505Z,28.30
2019-04-30T16:32:13.079Z,29.58
2019-04-30T16:34:42.538Z,29.21
2019-04-30T16:37:12.000Z,30.00
2019-04-30T16:39:41.446Z,29.96
2019-04-30T16:42:10.892Z,29.58
2019-04-30T16:44:40.395Z,30.21
2019-04-30T16:47:14.633Z,29.69
2019-04-30T16:49:41.037Z,29.89
2019-04-30T16:52:10.486Z,30.19
2019-04-30T16:54:39.927Z,29.05
2019-04-30T16:57:10.311Z,27.97
2019-04-30T16:59:41.513Z,28.33
2019-04-30T17:02:12.483Z,27.33
2019-04-30T17:04:41.685Z,26.56
2019-04-30T17:07:15.577Z,27.02
2019-04-30T17:10:02.759Z,27.04
2019-04-30T17:12:38.702Z,27.12
2019-04-30T17:15:22.211Z,26.12
2019-04-30T17:17:51.837Z,25.44
2019-04-30T17:20:21.360Z,24.86
2019-04-30T17:22:50.797Z,25.31
2019-04-30T17:25:20.232Z,26.16
2019-04-30T17:27:49.686Z,26.64
2019-04-30T17:30:19.747Z,26.36
2019-04-30T17:32:49.859Z,25.93
2019-04-30T17:35:19.520Z,25.97
2019-04-30T17:37:48.979Z,24.87
2019-04-30T17:40:19.723Z,24.16
2019-04-30T17:42:49.171Z,23.90
2019-04-30T17:45:19.841Z,23.54
2019-04-30T17:47:49.299Z,23.23
2019-04-30T17:50:18.928Z,22.89
2019-04-30T17:52:48.349Z,22.94
2019-04-30T17:55:19.515Z,22.37
2019-04-30T17:57:49.106Z,22.45
2019-04-30T18:00:22.178Z,22.04
2019-04-30T18:02:50.384Z,21.69
2019-04-30T18:05:19.837Z,20.72
2019-04-30T18:07:49.867Z,20.30
2019-04-30T18:10:20.204Z,20.09
2019-04-30T18:12:49.645Z,19.86
2019-04-30T18:15:27.570Z,19.74
2019-04-30T18:18:04.045Z,19.50
2019-04-30T18:20:39.185Z,19.48
2019-04-30T18:23:16.033Z,19.32
2019-04-30T18:25:47.110Z,19.05
2019-04-30T18:28:16.561Z,18.76
2019-04-30T18:30:46.016Z,18.67
2019-04-30T18:33:15.530Z,18.67
2019-04-30T18:35:44.978Z,18.81
2019-04-30T18:38:14.421Z,18.72
2019-04-30T18:40:43.853Z,18.57
2019-04-30T18:43:13.473Z,18.59
2019-04-30T18:45:42.966Z,18.26
2019-04-30T18:48:12.476Z,18.31
2019-04-30T18:50:42.005Z,18.32
2019-04-30T18:53:13.374Z,17.72
2019-04-30T18:55:42.800Z,17.78
2019-04-30T18:58:12.339Z,17.75
2019-04-30T19:00:43.410Z,17.90
2019-04-30T19:03:12.898Z,17.89
2019-04-30T19:05:43.989Z,17.88
2019-04-30T19:08:19.461Z,17.57
2019-04-30T19:11:06.188Z,17.57
2019-04-30T19:13:52.992Z,17.62
2019-04-30T19:16:31.358Z,17.69
2019-04-30T19:19:19.548Z,17.61
2019-04-30T19:21:49.241Z,17.65
2019-04-30T19:24:19.732Z,17.67
2019-04-30T19:26:49.243Z,17.62
2019-04-30T19:29:18.685Z,17.61
2019-04-30T19:31:49.465Z,17.17
2019-04-30T19:34:18.941Z,17.19
2019-04-30T19:36:49.269Z,17.01
2019-04-30T19:39:19.979Z,17.09
2019-04-30T19:41:49.420Z,17.09
2019-04-30T19:44:20.925Z,16.99
2019-04-30T19:46:50.461Z,16.90
2019-04-30T19:49:19.885Z,16.78
2019-04-30T19:51:49.574Z,16.65
2019-04-30T19:54:20.493Z,16.47
2019-04-30T19:56:50.252Z,16.44
2019-04-30T19:59:19.658Z,16.30
2019-04-30T20:01:49.115Z,16.24
2019-04-30T20:04:18.674Z,16.27
2019-04-30T20:06:48.728Z,16.23
2019-04-30T20:09:19.416Z,16.30
2019-04-30T20:11:49.322Z,16.30
2019-04-30T20:14:18.845Z,16.30
2019-04-30T20:16:48.678Z,16.35
2019-04-30T20:19:18.174Z,16.14
2019-04-30T20:21:51.376Z,15.84
2019-04-30T20:24:19.117Z,15.72
2019-04-30T20:26:51.639Z,15.53
2019-04-30T20:29:21.358Z,15.52
2019-04-30T20:31:50.819Z,15.55
2019-04-30T20:34:20.265Z,15.38
2019-04-30T20:36:49.717Z,15.18
2019-04-30T20:39:20.860Z,15.09
2019-04-30T20:41:51.167Z,14.93
2019-04-30T20:44:20.620Z,15.16
2019-04-30T20:46:50.051Z,15.21
2019-04-30T20:49:19.508Z,15.30
2019-04-30T20:51:55.660Z,15.38
2019-04-30T20:54:20.178Z,15.35
2019-04-30T20:56:50.994Z,15.30
2019-04-30T20:59:20.592Z,15.28
2019-04-30T21:01:50.045Z,15.23
2019-04-30T21:04:20.972Z,15.18
2019-04-30T21:06:50.582Z,15.04
2019-04-30T21:09:20.023Z,14.99
2019-04-30T21:11:49.451Z,15.06
2019-04-30T21:14:19.311Z,14.99
2019-04-30T21:16:48.822Z,14.93
2019-04-30T21:19:18.500Z,14.86
2019-04-30T21:21:49.734Z,14.74
2019-04-30T21:24:19.264Z,14.68
2019-04-30T21:26:48.703Z,14.67
2019-04-30T21:29:18.861Z,14.73
2019-04-30T21:31:52.979Z,14.75
2019-04-30T21:34:31.051Z,14.73
2019-04-30T21:37:00.544Z,14.71
2019-04-30T21:39:30.056Z,14.59
2019-04-30T21:41:59.553Z,14.65
2019-04-30T21:44:29.053Z,14.67
2019-04-30T21:46:58.579Z,14.66
2019-04-30T21:49:28.060Z,14.62
2019-04-30T21:51:57.492Z,14.59
2019-04-30T21:54:28.304Z,14.44
2019-04-30T21:56:58.105Z,14.19
2019-04-30T21:59:30.144Z,14.14
2019-04-30T22:01:58.813Z,14.11
2019-04-30T22:04:28.241Z,13.95
2019-04-30T22:06:59.527Z,13.83
2019-04-30T22:09:29.037Z,13.72
2019-04-30T22:11:59.219Z,13.62
2019-04-30T22:14:28.704Z,13.60
2019-04-30T22:16:59.430Z,13.64
2019-04-30T22:19:29.127Z,13.50
2019-04-30T22:21:59.456Z,13.51
2019-04-30T22:24:30.564Z,13.43
2019-04-30T22:27:00.082Z,13.28
2019-04-30T22:29:39.047Z,13.24
2019-04-30T22:32:00.790Z,13.20
2019-04-30T22:34:30.232Z,13.22
2019-04-30T22:36:59.680Z,13.17
2019-04-30T22:39:30.818Z,13.13
2019-04-30T22:42:29.597Z,13.11
2019-04-30T22:44:59.395Z,13.03
2019-04-30T22:47:28.969Z,12.97
2019-04-30T22:49:58.406Z,12.93
2019-04-30T22:52:27.923Z,12.89
2019-04-30T22:54:57.358Z,12.76
2019-04-30T22:57:26.781Z,12.48
2019-04-30T22:59:56.228Z,12.47
2019-04-30T23:02:45.174Z,12.45
2019-04-30T23:05:15.825Z,12.42
2019-04-30T23:07:45.262Z,12.30
2019-04-30T23:10:16.310Z,12.38
2019-04-30T23:12:46.033Z,12.30
2019-04-30T23:15:17.659Z,12.37
2019-04-30T23:17:47.105Z,12.24
2019-04-30T23:20:16.603Z,12.27
2019-04-30T23:22:46.100Z,12.23
2019-04-30T23:25:15.607Z,12.15
2019-04-30T23:27:45.035Z,12.06
2019-04-30T23:30:14.697Z,12.06
2019-04-30T23:32:44.358Z,12.06
2019-04-30T23:35:13.938Z,12.05
2019-04-30T23:37:43.471Z,12.03
2019-04-30T23:40:43.058Z,11.83
2019-04-30T23:43:12.506Z,11.70
2019-04-30T23:45:41.937Z,11.74
2019-04-30T23:48:11.377Z,11.69
2019-04-30T23:50:40.816Z,11.71
2019-04-30T23:53:10.549Z,11.72
2019-04-30T23:55:40.562Z,11.66
2019-04-30T23:58:10.060Z,11.66
